Time;durP1;ratioP1;P1;durP2;ratioP2;P2;SDS_P1;SDS_P2;PMS_P1;PMS_P2;Temp;Humidity;BMP_temperature;BMP_pressure;BME280_temperature;BME280_humidity;BME280_pressure;Samples;Min_cycle;Max_cycle;Signal;HPM_P1;HPM_P2
2022/10/07 00:00:46;;;;;;;0.73;0.73;;;13.50;99.90;;;;;;5075822;28;20475;-77
2022/10/07 00:03:14;;;;;;;0.60;0.50;;;13.50;99.90;;;;;;5075606;28;20477;-77
2022/10/07 00:05:41;;;;;;;0.60;0.60;;;13.40;99.90;;;;;;5074783;28;20478;-77
2022/10/07 00:08:08;;;;;;;0.73;0.73;;;13.50;99.90;;;;;;5075555;28;20445;-77
2022/10/07 00:10:38;;;;;;;0.83;0.60;;;13.40;99.90;;;;;;5075537;28;20453;-77
2022/10/07 00:13:05;;;;;;;0.67;0.67;;;13.40;99.90;;;;;;5075454;28;20485;-77
2022/10/07 00:15:32;;;;;;;0.50;0.40;;;13.50;99.90;;;;;;5075423;28;20871;-77
2022/10/07 00:17:58;;;;;;;0.83;0.83;;;13.40;99.90;;;;;;5075123;28;20437;-77
2022/10/07 00:20:26;;;;;;;1.70;0.50;;;13.40;99.90;;;;;;5075043;28;20929;-77
2022/10/07 00:22:53;;;;;;;1.07;1.07;;;13.40;99.90;;;;;;5075339;28;20441;-83
2022/10/07 00:25:20;;;;;;;0.90;0.70;;;13.40;99.90;;;;;;5074907;28;21003;-83
2022/10/07 00:27:49;;;;;;;0.40;0.40;;;13.50;99.90;;;;;;5075297;28;20442;-83
2022/10/07 00:30:15;;;;;;;0.60;0.60;;;13.50;99.90;;;;;;5075192;28;20475;-83
2022/10/07 00:32:42;;;;;;;1.00;0.80;;;13.50;99.90;;;;;;5075106;28;20481;-83
2022/10/07 00:35:09;;;;;;;1.03;0.43;;;13.50;99.90;;;;;;5075028;28;20465;-83
2022/10/07 00:37:41;;;;;;;0.60;0.60;;;13.50;99.90;;;;;;5075021;28;20445;-83
2022/10/07 00:40:10;;;;;;;0.40;0.40;;;13.50;99.90;;;;;;5075206;28;20488;-83
2022/10/07 00:42:36;;;;;;;0.93;0.67;;;13.50;99.90;;;;;;5074753;28;20441;-83
2022/10/07 00:45:04;;;;;;;0.40;0.40;;;13.50;99.90;;;;;;5074848;28;20477;-83
2022/10/07 00:47:33;;;;;;;0.83;0.83;;;13.50;99.90;;;;;;5074610;28;20963;-83
2022/10/07 00:50:04;;;;;;;8.60;1.00;;;13.50;99.90;;;;;;5074793;28;20453;-83
2022/10/07 00:52:34;;;;;;;0.83;0.60;;;13.50;99.90;;;;;;5074786;28;20480;-83
2022/10/07 00:55:07;;;;;;;0.90;0.53;;;13.50;99.90;;;;;;5074715;28;20473;-83
2022/10/07 00:57:34;;;;;;;0.50;0.40;;;13.50;99.90;;;;;;5074840;28;20434;-83
2022/10/07 01:00:02;;;;;;;0.40;0.40;;;13.50;99.90;;;;;;5074364;28;20949;-83
2022/10/07 01:02:29;;;;;;;1.10;0.50;;;13.50;99.90;;;;;;5074584;28;20450;-83
2022/10/07 01:04:59;;;;;;;1.20;0.67;;;13.50;99.90;;;;;;5074000;28;20984;-83
2022/10/07 01:07:27;;;;;;;0.80;0.50;;;13.50;99.90;;;;;;5074872;28;20477;-83
2022/10/07 01:09:58;;;;;;;1.33;0.50;;;13.40;99.90;;;;;;5074145;28;20952;-83
2022/10/07 01:12:37;;;;;;;2.83;0.50;;;13.40;99.90;;;;;;5074337;28;20477;-83
2022/10/07 01:15:10;;;;;;;0.70;0.60;;;13.40;99.90;;;;;;5074300;28;20469;-83
2022/10/07 01:17:44;;;;;;;0.50;0.50;;;13.50;99.90;;;;;;5074203;28;20445;-83
2022/10/07 01:20:23;;;;;;;0.67;0.43;;;13.50;99.90;;;;;;5074244;28;20433;-83
2022/10/07 01:23:03;;;;;;;0.50;0.40;;;13.50;99.90;;;;;;5074175;28;20430;-83
2022/10/07 01:25:42;;;;;;;3.80;0.70;;;13.50;99.90;;;;;;5074010;28;20465;-83
2022/10/07 01:28:15;;;;;;;1.17;0.50;;;13.50;99.90;;;;;;5074126;28;20453;-83
2022/10/07 01:30:47;;;;;;;1.50;0.50;;;13.50;99.90;;;;;;5073980;28;20426;-83
2022/10/07 01:33:17;;;;;;;0.40;0.40;;;13.40;99.90;;;;;;5073646;28;20988;-83
2022/10/07 01:35:47;;;;;;;0.40;0.40;;;13.50;99.90;;;;;;5073914;28;20469;-83
2022/10/07 01:38:18;;;;;;;0.80;0.60;;;13.40;99.90;;;;;;5074665;28;20446;-83
2022/10/07 01:40:48;;;;;;;0.53;0.53;;;13.40;99.90;;;;;;5073792;28;20437;-83
2022/10/07 01:43:18;;;;;;;0.97;0.90;;;13.40;99.90;;;;;;5073798;28;20503;-83
2022/10/07 01:45:47;;;;;;;0.40;0.40;;;13.40;99.90;;;;;;5073655;28;20473;-83
2022/10/07 01:48:14;;;;;;;0.60;0.50;;;13.40;99.90;;;;;;5073340;28;20933;-83
2022/10/07 01:50:41;;;;;;;0.53;0.53;;;13.40;99.90;;;;;;5073733;28;20450;-83
2022/10/07 01:53:26;;;;;;;0.90;0.60;;;13.40;99.90;;;;;;5073519;28;20496;-83
2022/10/07 01:56:09;;;;;;;0.40;0.40;;;13.40;99.90;;;;;;5073523;28;20414;-83
2022/10/07 01:58:56;;;;;;;0.70;0.50;;;13.40;99.90;;;;;;5073625;28;20414;-83
2022/10/07 02:01:30;;;;;;;6.93;0.70;;;13.40;99.90;;;;;;5073227;28;20940;-83
2022/10/07 02:04:24;;;;;;;1.17;0.50;;;13.40;99.90;;;;;;5073119;28;20486;-83
2022/10/07 02:07:00;;;;;;;1.03;0.50;;;13.40;99.90;;;;;;5073427;28;20437;-84
2022/10/07 02:09:34;;;;;;;1.17;0.70;;;13.30;99.90;;;;;;5073512;28;20444;-83
2022/10/07 02:12:07;;;;;;;0.83;0.60;;;13.30;99.90;;;;;;5073046;28;20940;-83
2022/10/07 02:14:39;;;;;;;0.57;0.57;;;13.30;99.90;;;;;;5073266;28;20511;-83
2022/10/07 02:17:10;;;;;;;0.83;0.47;;;13.30;99.90;;;;;;5073336;28;20433;-83
2022/10/07 02:19:42;;;;;;;0.90;0.50;;;13.30;99.90;;;;;;5073371;28;20433;-83
2022/10/07 02:22:11;;;;;;;0.50;0.33;;;13.30;99.90;;;;;;5073313;28;20442;-83
2022/10/07 02:24:40;;;;;;;1.57;0.53;;;13.30;99.90;;;;;;5072844;28;20461;-83
2022/10/07 02:27:10;;;;;;;0.40;0.37;;;13.30;99.90;;;;;;5072920;28;20972;-83
2022/10/07 02:29:41;;;;;;;1.17;0.50;;;13.30;99.90;;;;;;5072650;28;20445;-83
2022/10/07 02:32:13;;;;;;;0.60;0.60;;;13.30;99.90;;;;;;5073240;28;20424;-83
2022/10/07 02:34:44;;;;;;;0.50;0.50;;;13.30;99.90;;;;;;5072966;28;20882;-82
2022/10/07 02:37:17;;;;;;;1.27;0.60;;;13.30;99.90;;;;;;5073142;28;20473;-83
2022/10/07 02:39:45;;;;;;;0.80;0.60;;;13.30;99.90;;;;;;5072909;28;20935;-83
2022/10/07 02:42:23;;;;;;;4.73;1.07;;;13.30;99.90;;;;;;5073179;28;20548;-83
2022/10/07 02:44:55;;;;;;;0.73;0.60;;;13.30;99.90;;;;;;5072785;28;21007;-83
2022/10/07 02:47:27;;;;;;;0.73;0.60;;;13.20;99.90;;;;;;5072863;28;20414;-83
2022/10/07 02:49:59;;;;;;;3.37;0.40;;;13.20;99.90;;;;;;5073063;28;20436;-83
2022/10/07 02:52:30;;;;;;;0.50;0.47;;;13.20;99.90;;;;;;5073841;28;20513;-83
2022/10/07 02:55:00;;;;;;;0.73;0.73;;;13.20;99.90;;;;;;5073000;28;20515;-83
2022/10/07 02:57:30;;;;;;;1.27;1.13;;;13.20;99.90;;;;;;5073113;28;20520;-83
2022/10/07 03:00:00;;;;;;;0.40;0.40;;;13.20;99.90;;;;;;5072910;28;20433;-83
2022/10/07 03:02:32;;;;;;;1.33;0.60;;;13.30;99.90;;;;;;5072685;28;20937;-83
2022/10/07 03:04:59;;;;;;;0.73;0.60;;;13.30;99.90;;;;;;5072738;28;20473;-83
2022/10/07 03:07:26;;;;;;;0.50;0.50;;;13.30;99.90;;;;;;5072842;28;20443;-83
2022/10/07 03:09:54;;;;;;;0.50;0.43;;;13.30;99.90;;;;;;5072468;28;20968;-83
2022/10/07 03:12:21;;;;;;;2.93;0.50;;;13.30;99.90;;;;;;5072504;28;20807;-83
2022/10/07 03:14:48;;;;;;;0.60;0.50;;;13.20;99.90;;;;;;5072608;28;20489;-83
2022/10/07 03:17:16;;;;;;;1.17;0.60;;;13.20;99.90;;;;;;5072440;28;20449;-83
2022/10/07 03:19:43;;;;;;;1.20;0.60;;;13.20;99.90;;;;;;5072686;28;20450;-83
2022/10/07 03:22:11;;;;;;;1.30;0.60;;;13.20;99.90;;;;;;5072723;28;20448;-83
2022/10/07 03:24:38;;;;;;;0.60;0.60;;;13.30;99.90;;;;;;5072694;28;20468;-83
2022/10/07 03:27:06;;;;;;;0.47;0.47;;;13.20;99.90;;;;;;5072716;28;20455;-83
2022/10/07 03:29:34;;;;;;;0.60;0.60;;;13.20;99.90;;;;;;5072649;28;20528;-83
2022/10/07 03:32:01;;;;;;;0.40;0.40;;;13.20;99.90;;;;;;5072587;28;20441;-83
2022/10/07 03:34:30;;;;;;;0.70;0.60;;;13.20;99.90;;;;;;5072481;28;20492;-83
2022/10/07 03:36:57;;;;;;;7.40;0.80;;;13.20;99.90;;;;;;5072565;28;20438;-83
2022/10/07 03:39:24;;;;;;;0.53;0.40;;;13.20;99.90;;;;;;5072584;28;20453;-83
2022/10/07 03:41:51;;;;;;;0.50;0.50;;;13.20;99.90;;;;;;5074210;28;20450;-83
2022/10/07 03:44:18;;;;;;;0.60;0.60;;;13.20;99.90;;;;;;5076071;28;20460;-83
2022/10/07 03:46:48;;;;;;;0.67;0.40;;;13.10;99.90;;;;;;5076109;28;20449;-83
2022/10/07 03:49:15;;;;;;;2.47;1.03;;;13.10;99.90;;;;;;5075989;28;20449;-83
2022/10/07 03:51:43;;;;;;;0.43;0.43;;;13.10;99.90;;;;;;5076019;28;20457;-83
2022/10/07 03:54:10;;;;;;;0.60;0.50;;;13.10;99.90;;;;;;5075797;28;20489;-83
2022/10/07 03:56:36;;;;;;;0.57;0.57;;;13.10;99.90;;;;;;5075830;28;20451;-83
2022/10/07 03:59:04;;;;;;;3.03;0.63;;;13.10;99.90;;;;;;5075896;28;20445;-83
2022/10/07 04:01:30;;;;;;;0.50;0.50;;;13.10;99.90;;;;;;5075785;28;20470;-82
2022/10/07 04:03:58;;;;;;;0.80;0.50;;;13.10;99.90;;;;;;5075343;28;20485;-83
2022/10/07 04:06:25;;;;;;;0.90;0.70;;;13.10;99.90;;;;;;5075687;28;20499;-83
2022/10/07 04:08:55;;;;;;;1.27;1.20;;;13.10;99.90;;;;;;5075383;28;20454;-83
2022/10/07 04:11:21;;;;;;;2.13;0.80;;;13.20;99.90;;;;;;5075798;28;20441;-83
2022/10/07 04:13:48;;;;;;;1.90;0.60;;;13.20;99.90;;;;;;5075552;28;20489;-83
2022/10/07 04:16:15;;;;;;;0.60;0.60;;;13.20;99.90;;;;;;5075488;28;20457;-83
2022/10/07 04:18:43;;;;;;;0.57;0.57;;;13.10;99.90;;;;;;5075517;28;20456;-83
2022/10/07 04:21:10;;;;;;;0.50;0.40;;;13.20;99.90;;;;;;5075467;28;20840;-83
2022/10/07 04:23:37;;;;;;;0.50;0.50;;;13.20;99.90;;;;;;5074957;28;20453;-83
2022/10/07 04:26:09;;;;;;;0.63;0.63;;;13.20;99.90;;;;;;5075392;28;20823;-83
2022/10/07 04:28:37;;;;;;;1.17;0.60;;;13.30;99.90;;;;;;5075258;28;20437;-83
2022/10/07 04:31:05;;;;;;;0.80;0.60;;;13.30;99.90;;;;;;5074895;28;20461;-83
2022/10/07 04:33:31;;;;;;;0.67;0.67;;;13.30;99.90;;;;;;5075014;28;20492;-82
2022/10/07 04:36:04;;;;;;;0.50;0.50;;;13.30;99.90;;;;;;5075155;28;20446;-82
2022/10/07 04:38:31;;;;;;;0.70;0.70;;;13.30;99.90;;;;;;5074803;28;20986;-82
2022/10/07 04:40:58;;;;;;;1.83;0.80;;;13.30;99.90;;;;;;5074991;28;20445;-82
2022/10/07 04:43:32;;;;;;;4.60;1.13;;;13.30;99.90;;;;;;5075007;28;20441;-82
2022/10/07 04:46:02;;;;;;;0.50;0.50;;;13.30;99.90;;;;;;5074952;28;20453;-82
2022/10/07 04:48:29;;;;;;;0.50;0.50;;;13.30;99.90;;;;;;5074881;28;20442;-82
2022/10/07 04:51:00;;;;;;;0.70;0.67;;;13.30;99.90;;;;;;5074906;28;20446;-82
2022/10/07 04:53:27;;;;;;;0.47;0.47;;;13.30;99.90;;;;;;5074561;28;20435;-82
2022/10/07 04:55:53;;;;;;;2.53;0.50;;;13.30;99.90;;;;;;5074388;28;20461;-82
2022/10/07 04:58:20;;;;;;;4.60;0.90;;;13.20;99.90;;;;;;5074625;28;20457;-82
2022/10/07 05:00:51;;;;;;;1.00;0.73;;;13.20;99.90;;;;;;5074685;28;20450;-82
2022/10/07 05:03:19;;;;;;;1.17;0.70;;;13.20;99.90;;;;;;5074466;28;20477;-82
2022/10/07 05:05:48;;;;;;;0.40;0.40;;;13.10;99.90;;;;;;5074550;28;20477;-82
2022/10/07 05:08:17;;;;;;;1.00;0.60;;;13.10;99.90;;;;;;5074143;28;20949;-82
2022/10/07 05:10:44;;;;;;;1.03;0.93;;;13.20;99.90;;;;;;5074180;28;20449;-81
2022/10/07 05:13:13;;;;;;;0.57;0.57;;;13.10;99.90;;;;;;5074385;28;20551;-82
2022/10/07 05:15:49;;;;;;;0.80;0.77;;;13.10;99.90;;;;;;5074000;28;20999;-82
2022/10/07 05:18:16;;;;;;;1.67;0.80;;;13.10;99.90;;;;;;5074421;28;20433;-82
2022/10/07 05:20:45;;;;;;;0.70;0.60;;;13.20;99.90;;;;;;5074240;28;20454;-82
2022/10/07 05:23:12;;;;;;;0.70;0.70;;;13.20;99.90;;;;;;5074174;28;20469;-82
2022/10/07 05:25:39;;;;;;;0.50;0.40;;;13.10;99.90;;;;;;5074059;28;20461;-82
2022/10/07 05:28:05;;;;;;;0.90;0.70;;;13.10;99.90;;;;;;5074049;28;20453;-82
2022/10/07 05:30:32;;;;;;;0.50;0.50;;;13.10;99.90;;;;;;5074027;28;20458;-82
2022/10/07 05:33:01;;;;;;;2.47;1.27;;;13.10;99.90;;;;;;5073975;28;20453;-82
2022/10/07 05:35:28;;;;;;;2.17;0.70;;;13.20;99.90;;;;;;5073740;28;20490;-82
2022/10/07 05:37:55;;;;;;;0.83;0.83;;;13.10;99.90;;;;;;5073567;28;20971;-82
2022/10/07 05:40:22;;;;;;;1.93;0.80;;;13.10;99.90;;;;;;5073740;28;20446;-82
2022/10/07 05:42:49;;;;;;;0.40;0.40;;;13.10;99.90;;;;;;5073777;28;20452;-82
2022/10/07 05:45:16;;;;;;;6.43;0.60;;;13.20;99.90;;;;;;5073676;28;20462;-81
2022/10/07 05:47:43;;;;;;;0.70;0.70;;;13.20;99.90;;;;;;5073747;28;20536;-82
2022/10/07 05:50:11;;;;;;;0.60;0.60;;;13.20;99.90;;;;;;5073711;28;20445;-82
2022/10/07 05:52:38;;;;;;;1.53;0.63;;;13.20;99.90;;;;;;5073342;28;20941;-82
2022/10/07 05:55:06;;;;;;;0.60;0.60;;;13.20;99.90;;;;;;5073173;28;20992;-82
2022/10/07 05:57:33;;;;;;;1.17;0.80;;;13.20;99.90;;;;;;5073626;28;20449;-82
2022/10/07 06:00:02;;;;;;;0.80;0.80;;;13.10;99.90;;;;;;5073351;28;20461;-82
2022/10/07 06:02:29;;;;;;;1.10;1.00;;;13.10;99.90;;;;;;5073569;28;20446;-82
2022/10/07 06:04:55;;;;;;;0.60;0.40;;;13.20;99.90;;;;;;5072288;28;20480;-81
2022/10/07 06:07:24;;;;;;;0.93;0.50;;;13.20;99.90;;;;;;5073497;28;20449;-82
2022/10/07 06:15:20;;;;;;;0.77;0.60;;;13.50;99.90;;;;;;5073111;28;20572;-82
2022/10/07 06:17:47;;;;;;;1.00;0.67;;;13.50;99.90;;;;;;5073401;28;20450;-82
2022/10/07 06:20:14;;;;;;;1.17;0.60;;;13.50;99.90;;;;;;5073462;28;20453;-82
2022/10/07 06:22:43;;;;;;;0.40;0.40;;;13.50;99.90;;;;;;5073329;28;20456;-82
2022/10/07 06:25:10;;;;;;;2.17;0.97;;;13.50;99.90;;;;;;5072978;28;20972;-82
2022/10/07 06:27:36;;;;;;;0.70;0.50;;;13.60;99.90;;;;;;5073261;28;20445;-82
2022/10/07 06:30:04;;;;;;;0.63;0.47;;;13.70;99.90;;;;;;5073264;28;20442;-81
2022/10/07 06:32:31;;;;;;;7.13;0.90;;;13.70;99.90;;;;;;5073302;28;20453;-82
2022/10/07 06:34:58;;;;;;;0.67;0.67;;;13.70;99.90;;;;;;5073135;28;20576;-82
2022/10/07 06:37:25;;;;;;;0.80;0.57;;;13.80;99.90;;;;;;5073157;28;20456;-82
2022/10/07 06:39:53;;;;;;;0.73;0.60;;;13.80;99.90;;;;;;5073178;28;20445;-82
2022/10/07 06:42:20;;;;;;;0.50;0.50;;;13.80;99.90;;;;;;5073551;28;20814;-82
2022/10/07 06:44:46;;;;;;;0.50;0.43;;;13.90;99.90;;;;;;5072732;28;20968;-82
2022/10/07 06:47:13;;;;;;;0.50;0.50;;;13.90;99.90;;;;;;5073113;28;20457;-83
2022/10/07 06:49:40;;;;;;;0.70;0.70;;;13.90;99.90;;;;;;5073097;28;20434;-83
2022/10/07 06:52:07;;;;;;;0.50;0.50;;;13.90;99.90;;;;;;5073042;28;20446;-83
2022/10/07 06:54:33;;;;;;;1.83;0.90;;;14.00;99.90;;;;;;5072596;28;20478;-83
2022/10/07 06:57:02;;;;;;;0.70;0.60;;;14.00;99.90;;;;;;5073006;28;20450;-82
2022/10/07 06:59:28;;;;;;;0.50;0.50;;;14.10;99.90;;;;;;5073082;28;20442;-83
2022/10/07 07:01:55;;;;;;;0.70;0.50;;;14.10;99.90;;;;;;5073046;28;20981;-83
2022/10/07 07:04:23;;;;;;;0.93;0.60;;;14.10;99.90;;;;;;5072485;28;20511;-83
2022/10/07 07:06:50;;;;;;;1.80;0.90;;;14.20;99.90;;;;;;5072941;28;20556;-83
2022/10/07 07:09:17;;;;;;;0.93;0.87;;;14.20;99.90;;;;;;5073008;28;20571;-83
2022/10/07 07:11:44;;;;;;;2.50;1.17;;;14.20;99.90;;;;;;5072824;28;20446;-83
2022/10/07 07:14:13;;;;;;;4.07;1.30;;;14.20;99.90;;;;;;5072698;28;20473;-83
2022/10/07 07:16:40;;;;;;;1.10;0.70;;;14.20;99.90;;;;;;5075697;28;20457;-83
2022/10/07 07:19:10;;;;;;;1.60;0.57;;;14.20;99.90;;;;;;5076168;28;20552;-83
2022/10/07 07:21:39;;;;;;;0.97;0.87;;;14.30;99.90;;;;;;5076171;28;20812;-83
2022/10/07 07:24:07;;;;;;;1.27;1.03;;;14.40;99.90;;;;;;5076116;28;20467;-83
2022/10/07 07:26:34;;;;;;;0.70;0.67;;;14.40;99.90;;;;;;5076417;28;20456;-83
2022/10/07 07:29:03;;;;;;;2.00;0.93;;;14.50;99.90;;;;;;5076321;28;20461;-83
2022/10/07 07:31:33;;;;;;;2.03;1.13;;;14.50;99.90;;;;;;5076282;28;20445;-83
2022/10/07 07:34:02;;;;;;;1.17;0.77;;;14.50;99.90;;;;;;5075888;28;20465;-83
2022/10/07 07:36:30;;;;;;;1.97;0.67;;;14.50;99.90;;;;;;5076273;28;20452;-83
2022/10/07 07:38:59;;;;;;;1.57;0.70;;;14.50;99.90;;;;;;5077001;28;20454;-83
2022/10/07 07:41:28;;;;;;;1.13;0.80;;;14.60;99.90;;;;;;5076114;28;20460;-84
2022/10/07 07:43:57;;;;;;;1.40;1.30;;;14.70;99.90;;;;;;5075750;28;20476;-83
2022/10/07 07:46:26;;;;;;;3.63;1.47;;;14.70;99.90;;;;;;5076066;28;20456;-83
2022/10/07 07:48:55;;;;;;;1.13;0.60;;;14.80;99.90;;;;;;5075759;28;21001;-83
2022/10/07 07:51:22;;;;;;;1.37;1.27;;;14.90;99.90;;;;;;5076104;28;20449;-84
2022/10/07 07:53:49;;;;;;;1.53;1.00;;;15.00;99.90;;;;;;5076024;28;20465;-83
2022/10/07 07:56:17;;;;;;;0.97;0.70;;;15.10;99.90;;;;;;5075930;28;20481;-83
2022/10/07 07:58:43;;;;;;;1.40;1.20;;;15.20;99.90;;;;;;5075962;28;20446;-84
2022/10/07 08:01:12;;;;;;;2.80;1.40;;;15.40;99.90;;;;;;5075568;28;20953;-83
2022/10/07 08:03:41;;;;;;;1.47;1.00;;;15.50;99.90;;;;;;5075529;28;20531;-83
2022/10/07 08:06:11;;;;;;;0.70;0.70;;;15.60;99.90;;;;;;5075807;28;20452;-84
2022/10/07 08:08:41;;;;;;;2.93;1.43;;;15.70;99.90;;;;;;5075815;28;20445;-83
2022/10/07 08:11:09;;;;;;;4.40;1.10;;;15.70;99.90;;;;;;5075518;28;20445;-83
2022/10/07 08:13:38;;;;;;;1.17;0.90;;;15.80;99.90;;;;;;5075696;28;20453;-83
2022/10/07 08:16:05;;;;;;;1.37;1.03;;;16.00;99.90;;;;;;5075742;28;20477;-83
2022/10/07 08:18:33;;;;;;;1.60;1.30;;;16.20;99.90;;;;;;5075656;28;20894;-84
2022/10/07 08:21:01;;;;;;;1.53;1.40;;;16.20;99.90;;;;;;5075209;28;20450;-84
2022/10/07 08:23:30;;;;;;;2.23;1.23;;;16.30;99.90;;;;;;5075080;28;20941;-83
2022/10/07 08:25:58;;;;;;;3.90;1.87;;;16.40;99.90;;;;;;5075398;28;20807;-84
2022/10/07 08:28:26;;;;;;;2.63;1.43;;;16.50;99.90;;;;;;5074149;28;20936;-84
2022/10/07 08:30:53;;;;;;;1.60;1.20;;;16.60;99.90;;;;;;5075285;28;20870;-83
2022/10/07 08:33:22;;;;;;;3.27;1.67;;;16.70;99.90;;;;;;5074889;28;20450;-84
2022/10/07 08:35:52;;;;;;;3.47;1.20;;;16.90;99.90;;;;;;5075019;28;20496;-84
2022/10/07 08:38:18;;;;;;;2.40;1.20;;;17.00;99.90;;;;;;5075096;28;20438;-83
2022/10/07 08:40:51;;;;;;;6.00;2.00;;;17.20;99.90;;;;;;5074956;28;20454;-85
2022/10/07 08:43:20;;;;;;;3.63;1.40;;;17.30;99.90;;;;;;5075916;28;20496;-89
2022/10/07 08:45:48;;;;;;;2.00;1.23;;;17.40;99.90;;;;;;5076000;28;20469;-86
2022/10/07 08:48:18;;;;;;;1.03;0.97;;;17.50;99.90;;;;;;5075550;28;20450;-89
2022/10/07 08:50:55;;;;;;;1.50;1.23;;;17.70;99.90;;;;;;5075835;28;20430;-88
2022/10/07 08:53:29;;;;;;;3.27;1.57;;;17.90;99.90;;;;;;5075532;28;20422;-86
2022/10/07 08:56:07;;;;;;;4.20;1.10;;;17.90;99.90;;;;;;5074538;28;20472;-84
2022/10/07 08:59:05;;;;;;;3.70;1.57;;;18.00;99.90;;;;;;5074618;28;20847;-80
2022/10/07 09:01:44;;;;;;;2.60;1.23;;;18.30;99.90;;;;;;5073764;28;20945;-80
2022/10/07 09:04:26;;;;;;;3.53;1.50;;;18.50;99.90;;;;;;5074528;28;20481;-84
2022/10/07 09:07:00;;;;;;;2.87;1.63;;;18.50;99.90;;;;;;5074755;28;20422;-83
2022/10/07 09:09:34;;;;;;;2.33;2.13;;;18.80;99.90;;;;;;5074460;28;20437;-80
2022/10/07 09:12:07;;;;;;;2.97;1.33;;;19.10;99.90;;;;;;5074895;28;20429;-80
2022/10/07 09:14:38;;;;;;;2.00;1.57;;;19.50;99.90;;;;;;5074085;28;20469;-78
2022/10/07 09:17:09;;;;;;;3.93;2.10;;;19.90;99.90;;;;;;5074233;28;20428;-83
2022/10/07 09:19:41;;;;;;;3.83;1.50;;;20.20;99.90;;;;;;5074091;28;20441;-81
2022/10/07 09:22:18;;;;;;;2.60;1.30;;;20.60;99.90;;;;;;5074179;28;20808;-86
2022/10/07 09:24:46;;;;;;;1.40;1.30;;;20.50;99.90;;;;;;5074330;28;20469;-79
2022/10/07 09:27:17;;;;;;;3.30;1.63;;;20.50;99.90;;;;;;5074257;28;20452;-79
2022/10/07 09:29:44;;;;;;;1.87;1.43;;;20.40;99.90;;;;;;5074236;28;20765;-79
2022/10/07 09:32:12;;;;;;;2.97;1.43;;;20.40;99.90;;;;;;5073871;28;20436;-79
2022/10/07 09:34:39;;;;;;;1.50;1.40;;;20.50;99.90;;;;;;5073934;28;20465;-80
2022/10/07 09:37:19;;;;;;;1.27;1.10;;;20.60;99.90;;;;;;5074046;28;20459;-79
2022/10/07 09:39:48;;;;;;;1.33;1.03;;;20.00;99.90;;;;;;5073961;28;20494;-80
2022/10/07 09:42:27;;;;;;;2.00;1.80;;;19.60;99.90;;;;;;5073957;28;20456;-80
2022/10/07 09:44:57;;;;;;;10.00;1.93;;;19.50;99.90;;;;;;5073867;28;20476;-80
2022/10/07 09:47:27;;;;;;;3.03;1.90;;;19.50;99.90;;;;;;5073663;28;20676;-79
2022/10/07 09:49:58;;;;;;;2.53;1.27;;;19.60;99.90;;;;;;5073849;28;20492;-79
2022/10/07 09:52:26;;;;;;;3.10;1.90;;;19.80;99.90;;;;;;5073467;28;20867;-79
2022/10/07 09:54:55;;;;;;;1.27;1.00;;;20.00;99.90;;;;;;5073335;28;20457;-80
2022/10/07 09:57:31;;;;;;;2.97;1.73;;;20.10;99.90;;;;;;5073729;28;20816;-80
2022/10/07 10:00:26;;;;;;;2.20;1.27;;;20.10;99.90;;;;;;5073371;28;20446;-80
2022/10/07 10:02:57;;;;;;;2.23;1.57;;;20.20;99.90;;;;;;5073474;28;20461;-80
2022/10/07 10:05:28;;;;;;;1.57;1.30;;;20.20;99.90;;;;;;5073635;28;20457;-80
2022/10/07 10:08:01;;;;;;;1.70;1.60;;;20.40;99.90;;;;;;5073686;28;20434;-79
2022/10/07 10:10:30;;;;;;;1.70;1.50;;;20.60;99.90;;;;;;5073337;28;20414;-79
2022/10/07 10:13:01;;;;;;;2.50;1.00;;;20.80;99.90;;;;;;5073229;28;21012;-79
2022/10/07 10:15:42;;;;;;;1.63;1.13;;;20.90;99.90;;;;;;5073345;28;20499;-80
2022/10/07 10:18:53;;;;;;;1.70;1.20;;;21.30;99.90;;;;;;5073196;28;20456;-79
2022/10/07 10:21:29;;;;;;;3.10;1.93;;;21.60;99.90;;;;;;5073582;28;20436;-79
2022/10/07 10:23:57;;;;;;;1.40;1.20;;;21.70;99.90;;;;;;5073037;28;20525;-80
2022/10/07 10:26:41;;;;;;;1.33;1.23;;;21.60;99.90;;;;;;5073441;28;20539;-80
2022/10/07 10:29:41;;;;;;;5.20;1.87;;;21.40;99.90;;;;;;5073124;28;20429;-80
2022/10/07 10:32:43;;;;;;;2.90;1.70;;;21.90;99.90;;;;;;5073208;28;20436;-84
2022/10/07 10:35:15;;;;;;;2.80;2.00;;;22.60;99.90;;;;;;5067827;28;21018;-80
2022/10/07 10:37:58;;;;;;;2.23;1.47;;;22.90;99.90;;;;;;5073476;28;20429;-80
2022/10/07 10:40:32;;;;;;;1.60;1.40;;;22.80;99.90;;;;;;5073039;28;20414;-80
2022/10/07 10:43:15;;;;;;;6.57;2.07;;;22.70;99.90;;;;;;5073228;28;20515;-79
2022/10/07 10:45:55;;;;;;;2.10;1.30;;;22.30;99.90;;;;;;5073165;28;20226;-79
2022/10/07 10:48:29;;;;;;;2.00;1.47;;;22.10;99.90;;;;;;5072952;28;20760;-79
2022/10/07 10:51:01;;;;;;;5.10;1.80;;;21.90;99.90;;;;;;5075221;28;20195;-79
2022/10/07 10:53:37;;;;;;;2.50;1.93;;;21.60;99.90;;;;;;5077170;28;20429;-80
2022/10/07 10:56:20;;;;;;;3.10;2.80;;;21.10;99.90;;;;;;5076854;28;20464;-80
2022/10/07 10:58:58;;;;;;;1.87;1.70;;;20.70;99.90;;;;;;5077202;28;20869;-79
2022/10/07 11:01:34;;;;;;;2.60;1.27;;;20.50;99.90;;;;;;5077080;28;20429;-78
2022/10/07 11:04:17;;;;;;;4.20;1.43;;;20.40;99.90;;;;;;5076686;28;20468;-78
2022/10/07 11:06:49;;;;;;;1.73;1.63;;;20.40;99.90;;;;;;5076979;28;20799;-78
2022/10/07 11:09:29;;;;;;;2.17;1.20;;;20.30;99.90;;;;;;5076596;28;20905;-78
2022/10/07 11:11:58;;;;;;;1.60;1.27;;;20.20;99.90;;;;;;5076643;28;20410;-78
2022/10/07 11:14:27;;;;;;;3.67;1.60;;;20.10;99.90;;;;;;5076795;28;20468;-78
2022/10/07 11:16:58;;;;;;;2.23;1.20;;;20.00;99.90;;;;;;5076703;28;20484;-78
2022/10/07 11:19:29;;;;;;;1.63;1.30;;;19.80;99.90;;;;;;5076721;28;20788;-78
2022/10/07 11:21:58;;;;;;;1.67;1.20;;;19.80;99.90;;;;;;5076641;28;20445;-78
2022/10/07 11:24:29;;;;;;;3.50;1.67;;;19.80;99.90;;;;;;5076378;28;20519;-78
2022/10/07 11:27:03;;;;;;;3.23;2.00;;;19.80;99.90;;;;;;5077232;28;20444;-78
2022/10/07 11:29:37;;;;;;;1.50;1.40;;;19.70;99.90;;;;;;5076511;28;20433;-78
2022/10/07 11:32:12;;;;;;;1.73;1.37;;;19.60;99.90;;;;;;5076451;28;20554;-79
2022/10/07 11:34:46;;;;;;;1.17;1.10;;;19.50;99.90;;;;;;5076019;28;20976;-78
2022/10/07 11:37:21;;;;;;;1.60;1.50;;;19.50;99.90;;;;;;5076310;28;20584;-78
2022/10/07 11:39:48;;;;;;;1.73;1.57;;;19.50;99.90;;;;;;5076236;28;20444;-78
2022/10/07 11:42:19;;;;;;;1.30;1.00;;;19.40;99.90;;;;;;5076264;28;20455;-78
2022/10/07 11:44:55;;;;;;;1.57;0.90;;;19.40;99.90;;;;;;5076120;28;20477;-78
2022/10/07 11:47:27;;;;;;;1.17;1.00;;;19.40;99.90;;;;;;5075872;28;20429;-78
2022/10/07 11:50:01;;;;;;;2.70;1.73;;;19.50;99.90;;;;;;5075933;28;20779;-79
2022/10/07 11:52:30;;;;;;;5.70;1.97;;;19.50;99.90;;;;;;5075773;28;20425;-77
2022/10/07 11:55:03;;;;;;;2.97;1.53;;;19.20;99.90;;;;;;5075971;28;20465;-78
2022/10/07 11:57:31;;;;;;;2.17;1.60;;;19.10;99.90;;;;;;5075965;28;20476;-79
2022/10/07 12:00:01;;;;;;;1.63;1.40;;;19.10;99.90;;;;;;5075678;28;20819;-79
2022/10/07 12:02:41;;;;;;;2.17;1.30;;;19.10;99.90;;;;;;5074599;28;20460;-78
2022/10/07 12:05:46;;;;;;;1.90;1.70;;;19.10;99.90;;;;;;5075431;28;20481;-78
2022/10/07 12:08:34;;;;;;;3.03;1.90;;;19.00;99.90;;;;;;5075388;28;20442;-82
2022/10/07 12:11:44;;;;;;;3.27;1.80;;;18.90;99.90;;;;;;5071203;28;20441;-77
2022/10/07 12:14:31;;;;;;;1.77;1.60;;;18.70;99.90;;;;;;5075714;28;20514;-78
2022/10/07 12:16:58;;;;;;;1.97;1.33;;;18.70;99.90;;;;;;5075461;28;20556;-78
2022/10/07 12:19:26;;;;;;;1.33;1.23;;;18.50;99.90;;;;;;5075620;28;20472;-77
2022/10/07 12:22:17;;;;;;;1.30;1.20;;;18.50;99.90;;;;;;5075537;28;20468;-77
2022/10/07 12:24:46;;;;;;;2.60;1.60;;;18.30;99.90;;;;;;5060361;28;20489;-77
2022/10/07 12:27:18;;;;;;;2.30;1.90;;;18.20;99.90;;;;;;5075193;28;20440;-77
2022/10/07 12:29:49;;;;;;;3.63;2.17;;;18.20;99.90;;;;;;5075486;28;20440;-78
2022/10/07 12:32:56;;;;;;;2.10;1.20;;;18.10;99.90;;;;;;5075420;28;20432;-77
2022/10/07 12:35:43;;;;;;;1.43;1.33;;;18.20;99.90;;;;;;5075270;28;20469;-78
2022/10/07 12:38:23;;;;;;;4.30;2.00;;;18.10;99.90;;;;;;5074977;28;20426;-77
2022/10/07 12:41:23;;;;;;;3.13;1.90;;;18.10;99.90;;;;;;5075211;28;20434;-76
2022/10/07 12:43:57;;;;;;;5.10;1.80;;;18.20;99.90;;;;;;5074693;28;20480;-76
2022/10/07 12:46:26;;;;;;;2.70;1.87;;;18.20;99.90;;;;;;5074764;28;20426;-77
2022/10/07 12:48:59;;;;;;;1.40;1.30;;;18.20;99.90;;;;;;5074972;28;20450;-77
2022/10/07 12:51:30;;;;;;;4.00;2.00;;;18.10;99.90;;;;;;5075038;28;20445;-77
2022/10/07 12:53:59;;;;;;;1.70;1.40;;;18.00;99.90;;;;;;5074628;28;20548;-77
2022/10/07 12:56:29;;;;;;;2.83;1.67;;;18.10;99.90;;;;;;5074792;28;20484;-78
2022/10/07 13:02:47;;;;;;;2.50;1.70;;;18.20;99.90;;;;;;5074827;28;20398;-77
2022/10/07 13:05:42;;;;;;;3.43;1.90;;;18.10;99.90;;;;;;5074187;28;20485;-77
2022/10/07 13:09:01;;;;;;;2.70;1.23;;;17.90;99.90;;;;;;5074680;28;20484;-76
2022/10/07 13:11:59;;;;;;;2.87;1.20;;;17.90;99.90;;;;;;5074614;28;20516;-76
2022/10/07 13:14:33;;;;;;;2.20;1.50;;;17.90;99.90;;;;;;5073876;28;20468;-76
2022/10/07 13:17:12;;;;;;;1.87;1.43;;;17.90;99.90;;;;;;5074387;28;20573;-76
2022/10/07 13:19:43;;;;;;;1.67;1.57;;;17.80;99.90;;;;;;5075267;28;20436;-76